Time;durP1;ratioP1;P1;durP2;ratioP2;P2;SDS_P1;SDS_P2;PMS_P1;PMS_P2;Temp;Humidity;BMP_temperature;BMP_pressure;BME280_temperature;BME280_humidity;BME280_pressure;Samples;Min_cycle;Max_cycle;Signal;HPM_P1;HPM_P2
2021/11/26 00:00:42;;;;;;;20.48;14.48;;;9.60;99.90;;;;;;5074930;28;20224;-63
2021/11/26 00:03:09;;;;;;;25.25;16.02;;;9.60;99.90;;;;;;5075371;28;20682;-62
2021/11/26 00:05:37;;;;;;;17.95;16.10;;;9.60;99.90;;;;;;5074869;28;20229;-63
2021/11/26 00:08:04;;;;;;;23.25;16.75;;;9.50;99.90;;;;;;5075466;28;20230;-62
2021/11/26 00:10:31;;;;;;;21.45;14.40;;;9.50;99.90;;;;;;5074805;28;20231;-62
2021/11/26 00:13:01;;;;;;;23.75;15.65;;;9.50;99.90;;;;;;5075372;28;20216;-63
2021/11/26 00:15:38;;;;;;;18.48;13.55;;;9.50;99.90;;;;;;5074733;28;20266;-63
2021/11/26 00:18:08;;;;;;;18.45;12.95;;;9.50;99.90;;;;;;5075234;28;20277;-63
2021/11/26 00:20:37;;;;;;;20.88;13.85;;;9.40;99.90;;;;;;5074259;28;20538;-63
2021/11/26 00:23:04;;;;;;;16.02;12.77;;;9.40;99.90;;;;;;5072644;28;20708;-62
2021/11/26 00:25:32;;;;;;;24.77;16.02;;;9.40;99.90;;;;;;5074295;28;20232;-63
2021/11/26 00:27:58;;;;;;;19.13;13.85;;;9.40;99.90;;;;;;5067276;28;20270;-63
2021/11/26 00:30:26;;;;;;;23.05;13.95;;;9.40;99.90;;;;;;5074455;28;20228;-64
2021/11/26 00:32:53;;;;;;;18.20;13.82;;;9.30;99.90;;;;;;5074911;28;20236;-64
2021/11/26 00:35:20;;;;;;;24.42;14.60;;;9.30;99.90;;;;;;5072051;28;20285;-64
2021/11/26 00:37:48;;;;;;;16.27;12.35;;;9.30;99.90;;;;;;5074716;28;20930;-64
2021/11/26 00:40:16;;;;;;;16.45;12.98;;;9.30;99.90;;;;;;5068810;28;20232;-64
2021/11/26 00:42:43;;;;;;;18.48;15.50;;;9.30;99.90;;;;;;5074312;28;20236;-64
2021/11/26 00:45:11;;;;;;;19.85;13.30;;;9.30;99.90;;;;;;5074475;28;20232;-64
2021/11/26 00:47:39;;;;;;;20.10;13.05;;;9.40;99.90;;;;;;5074022;28;20228;-64
2021/11/26 00:50:07;;;;;;;20.70;12.43;;;9.30;99.90;;;;;;5074738;28;20220;-64
2021/11/26 00:52:35;;;;;;;18.67;13.55;;;9.30;99.90;;;;;;5073200;28;20278;-64
2021/11/26 00:55:03;;;;;;;18.67;13.30;;;9.30;99.90;;;;;;5074433;28;20220;-64
2021/11/26 00:57:30;;;;;;;24.75;16.70;;;9.30;99.90;;;;;;5074119;28;20684;-64
2021/11/26 00:59:57;;;;;;;19.08;14.38;;;9.20;99.90;;;;;;5074657;28;20220;-64
2021/11/26 01:02:24;;;;;;;19.67;14.07;;;9.30;99.90;;;;;;5073964;28;20226;-64
2021/11/26 01:04:51;;;;;;;15.02;12.27;;;9.30;99.90;;;;;;5074462;28;20235;-63
2021/11/26 01:07:18;;;;;;;23.85;17.40;;;9.30;99.90;;;;;;5074307;28;20228;-64
2021/11/26 01:09:45;;;;;;;14.70;11.45;;;9.30;99.90;;;;;;5076881;28;20592;-64
2021/11/26 01:12:13;;;;;;;18.10;14.52;;;9.30;99.90;;;;;;5079735;28;20223;-64
2021/11/26 01:14:40;;;;;;;18.95;13.63;;;9.30;99.90;;;;;;5073639;28;20212;-64
2021/11/26 01:17:07;;;;;;;17.98;12.63;;;9.30;99.90;;;;;;5073917;28;20232;-64
2021/11/26 01:19:34;;;;;;;15.35;12.88;;;9.30;99.90;;;;;;5073723;28;20224;-64
2021/11/26 01:22:01;;;;;;;19.50;12.85;;;9.30;99.90;;;;;;5073695;28;20224;-64
2021/11/26 01:24:28;;;;;;;16.27;11.13;;;9.30;99.90;;;;;;5073467;28;20231;-64
2021/11/26 01:26:55;;;;;;;16.10;12.35;;;9.30;99.90;;;;;;5074100;28;20224;-64
2021/11/26 01:29:24;;;;;;;16.48;13.15;;;9.30;99.90;;;;;;5073950;28;20231;-64
2021/11/26 01:31:50;;;;;;;14.45;11.80;;;9.20;99.90;;;;;;5073172;28;20223;-64
2021/11/26 01:34:17;;;;;;;15.98;11.90;;;9.20;99.80;;;;;;5073032;28;20236;-64
2021/11/26 01:36:48;;;;;;;16.30;12.15;;;9.20;99.90;;;;;;5069219;28;20220;-64
2021/11/26 01:39:15;;;;;;;16.48;12.55;;;9.20;99.90;;;;;;5073561;28;20265;-64
2021/11/26 01:41:43;;;;;;;15.07;11.23;;;9.20;99.90;;;;;;5072794;28;20231;-64
2021/11/26 01:44:10;;;;;;;16.63;11.23;;;9.20;99.90;;;;;;5073474;28;20244;-64
2021/11/26 01:46:40;;;;;;;14.73;12.18;;;9.20;99.90;;;;;;5072999;28;20271;-64
2021/11/26 01:49:08;;;;;;;24.15;14.45;;;9.20;99.90;;;;;;5073412;28;20588;-62
2021/11/26 01:51:35;;;;;;;16.90;11.70;;;9.20;99.90;;;;;;5072867;28;20223;-64
2021/11/26 01:54:02;;;;;;;14.40;12.07;;;9.20;99.90;;;;;;5072900;28;20685;-64
2021/11/26 01:56:29;;;;;;;15.75;11.65;;;9.20;99.90;;;;;;5071256;28;20277;-64
2021/11/26 01:58:57;;;;;;;23.65;12.80;;;9.20;99.90;;;;;;5073175;28;20230;-64
2021/11/26 02:01:25;;;;;;;14.35;10.50;;;9.20;99.90;;;;;;5073223;28;20297;-64
2021/11/26 02:03:54;;;;;;;17.65;13.10;;;9.30;99.90;;;;;;5072435;28;20224;-64
2021/11/26 02:06:22;;;;;;;16.42;11.27;;;9.20;99.90;;;;;;5073063;28;20669;-64
2021/11/26 02:08:49;;;;;;;15.63;11.52;;;9.20;99.90;;;;;;5072672;28;20307;-64
2021/11/26 02:11:17;;;;;;;18.38;11.55;;;9.20;99.90;;;;;;5072962;28;20319;-64
2021/11/26 02:13:44;;;;;;;18.50;11.43;;;9.20;99.90;;;;;;5072236;28;20670;-64
2021/11/26 02:16:11;;;;;;;15.32;13.20;;;9.20;99.90;;;;;;5073068;28;20224;-64
2021/11/26 02:18:38;;;;;;;16.70;12.38;;;9.20;99.90;;;;;;5072418;28;20239;-64
2021/11/26 02:21:06;;;;;;;21.25;13.50;;;9.20;99.90;;;;;;5072302;28;20228;-64
2021/11/26 02:23:33;;;;;;;12.43;10.10;;;9.20;99.90;;;;;;5065385;28;20277;-64
2021/11/26 02:26:00;;;;;;;17.65;11.40;;;9.20;99.90;;;;;;5069230;28;20565;-64
2021/11/26 02:28:27;;;;;;;17.90;11.57;;;9.20;99.90;;;;;;5077007;28;20235;-64
2021/11/26 02:30:54;;;;;;;16.98;10.85;;;9.20;99.90;;;;;;5066939;28;20231;-64
2021/11/26 02:33:23;;;;;;;15.40;12.18;;;9.20;99.90;;;;;;5072191;28;20285;-64
2021/11/26 02:35:52;;;;;;;22.55;16.77;;;9.20;99.90;;;;;;5066685;28;20220;-61
2021/11/26 02:38:22;;;;;;;18.00;12.85;;;9.20;99.90;;;;;;5072532;28;20306;-64
2021/11/26 02:40:50;;;;;;;13.27;10.98;;;9.20;99.90;;;;;;5070581;28;20227;-64
2021/11/26 02:43:17;;;;;;;16.35;12.15;;;9.20;99.90;;;;;;5072354;28;20834;-64
2021/11/26 02:45:46;;;;;;;15.82;11.55;;;9.20;99.90;;;;;;5071609;28;20308;-64
2021/11/26 02:48:14;;;;;;;22.23;14.35;;;9.20;99.90;;;;;;5071786;28;20696;-64
2021/11/26 02:50:43;;;;;;;17.65;11.52;;;9.20;99.90;;;;;;5071959;28;20306;-64
2021/11/26 02:53:10;;;;;;;18.90;12.90;;;9.20;99.90;;;;;;5072181;28;20302;-64
2021/11/26 02:55:39;;;;;;;20.35;12.45;;;9.30;99.90;;;;;;5071881;28;20220;-64
2021/11/26 02:58:07;;;;;;;28.73;17.80;;;9.30;99.90;;;;;;5059647;28;20296;-64
2021/11/26 03:00:36;;;;;;;23.05;12.88;;;9.30;99.90;;;;;;5071551;28;20232;-64
2021/11/26 03:03:04;;;;;;;17.40;12.55;;;9.30;99.90;;;;;;5071747;28;20243;-64
2021/11/26 03:05:32;;;;;;;21.58;11.77;;;9.20;99.90;;;;;;5071985;28;20224;-64
2021/11/26 03:07:59;;;;;;;22.25;16.13;;;9.30;99.90;;;;;;5072276;28;21375;-64
2021/11/26 03:10:26;;;;;;;18.15;12.95;;;9.30;99.90;;;;;;5072182;28;20227;-64
2021/11/26 03:12:56;;;;;;;17.98;14.25;;;9.30;99.90;;;;;;5071598;28;20243;-64
2021/11/26 03:15:24;;;;;;;16.63;12.85;;;9.30;99.90;;;;;;5072954;28;20231;-62
2021/11/26 03:17:51;;;;;;;25.25;16.80;;;9.30;99.90;;;;;;5075941;28;20715;-62
2021/11/26 03:20:18;;;;;;;18.80;13.02;;;9.30;99.90;;;;;;5069301;28;20231;-62
2021/11/26 03:22:45;;;;;;;14.00;11.27;;;9.30;99.90;;;;;;5072234;28;20550;-63
2021/11/26 03:25:13;;;;;;;26.63;14.95;;;9.40;99.90;;;;;;5076062;28;20622;-62
2021/11/26 03:27:41;;;;;;;15.32;10.82;;;9.30;99.90;;;;;;5075801;28;20727;-62
2021/11/26 03:30:12;;;;;;;15.18;11.93;;;9.30;99.90;;;;;;5076257;28;20235;-63
2021/11/26 03:32:39;;;;;;;24.50;11.90;;;9.40;99.90;;;;;;5075816;28;20236;-62
2021/11/26 03:35:07;;;;;;;18.40;11.25;;;9.40;99.90;;;;;;5072307;28;20228;-62
2021/11/26 03:37:35;;;;;;;21.45;15.05;;;9.40;99.90;;;;;;5074912;28;20227;-62
2021/11/26 03:40:02;;;;;;;19.02;12.73;;;9.40;99.90;;;;;;5075681;28;20304;-63
2021/11/26 03:42:29;;;;;;;16.98;13.35;;;9.40;99.90;;;;;;5075550;28;20251;-63
2021/11/26 03:44:56;;;;;;;15.00;12.13;;;9.40;99.90;;;;;;5075290;28;20220;-63
2021/11/26 03:47:25;;;;;;;15.52;11.20;;;9.40;99.90;;;;;;5075661;28;20771;-63
2021/11/26 03:49:52;;;;;;;15.75;12.23;;;9.40;99.90;;;;;;5075250;28;20232;-63
2021/11/26 03:52:19;;;;;;;19.67;13.50;;;9.50;99.90;;;;;;5075707;28;20238;-63
2021/11/26 03:54:46;;;;;;;17.60;12.63;;;9.50;99.90;;;;;;5075328;28;20220;-63
2021/11/26 03:57:14;;;;;;;19.10;14.38;;;9.40;99.90;;;;;;5075561;28;20314;-63
2021/11/26 03:59:41;;;;;;;17.25;12.40;;;9.40;99.90;;;;;;5075090;28;20236;-63
2021/11/26 04:02:09;;;;;;;15.63;12.65;;;9.50;99.90;;;;;;5075356;28;20224;-63
2021/11/26 04:04:38;;;;;;;15.55;11.40;;;9.40;99.90;;;;;;5075283;28;20599;-63
2021/11/26 04:07:05;;;;;;;15.32;11.13;;;9.40;99.90;;;;;;5075067;28;20223;-63
2021/11/26 04:09:32;;;;;;;14.73;10.40;;;9.40;99.90;;;;;;5075116;28;20224;-63
2021/11/26 04:11:59;;;;;;;16.33;12.80;;;9.40;99.90;;;;;;5075077;28;20250;-63
2021/11/26 04:14:26;;;;;;;19.27;12.20;;;9.40;99.80;;;;;;5075082;28;20225;-63
2021/11/26 04:16:53;;;;;;;18.63;13.48;;;9.40;99.70;;;;;;5074784;28;20681;-63
2021/11/26 04:19:20;;;;;;;14.85;11.35;;;9.40;99.80;;;;;;5075219;28;20658;-63
2021/11/26 04:21:48;;;;;;;17.15;11.50;;;9.40;99.90;;;;;;5074313;28;20238;-63
2021/11/26 04:24:15;;;;;;;19.25;14.50;;;9.40;99.90;;;;;;5075104;28;20231;-63
2021/11/26 04:26:42;;;;;;;15.93;13.10;;;9.40;99.90;;;;;;5074872;28;20220;-63
2021/11/26 04:29:09;;;;;;;17.42;10.77;;;9.30;99.90;;;;;;5074794;28;20230;-63
2021/11/26 04:31:36;;;;;;;17.58;11.30;;;9.40;99.90;;;;;;5075013;28;20239;-62
2021/11/26 04:34:03;;;;;;;14.93;11.88;;;9.40;99.80;;;;;;5074278;28;20228;-63
2021/11/26 04:36:30;;;;;;;16.25;10.57;;;9.40;99.70;;;;;;5069580;28;20285;-63
2021/11/26 04:38:58;;;;;;;21.83;12.23;;;9.40;99.50;;;;;;5074104;28;20232;-62
2021/11/26 04:41:27;;;;;;;23.77;12.45;;;9.40;99.50;;;;;;5075068;28;20296;-62
2021/11/26 04:43:53;;;;;;;17.45;10.43;;;9.40;99.30;;;;;;5074450;28;20595;-63
2021/11/26 04:46:20;;;;;;;20.10;10.27;;;9.40;99.00;;;;;;5074749;28;20228;-63
2021/11/26 04:48:48;;;;;;;19.95;11.30;;;9.40;99.00;;;;;;5074251;28;20242;-63
2021/11/26 04:51:15;;;;;;;12.93;9.55;;;9.40;99.20;;;;;;5074622;28;20290;-63
2021/11/26 04:53:42;;;;;;;20.38;14.85;;;9.30;99.40;;;;;;5074507;28;20622;-63
2021/11/26 04:56:10;;;;;;;11.85;9.35;;;9.30;99.60;;;;;;5074556;28;20224;-63
2021/11/26 04:58:37;;;;;;;12.30;8.60;;;9.30;99.20;;;;;;5074507;28;20246;-63
2021/11/26 05:01:05;;;;;;;25.92;15.25;;;9.30;99.40;;;;;;5072924;28;20815;-63
2021/11/26 05:03:33;;;;;;;17.35;11.70;;;9.30;99.30;;;;;;5071756;28;20239;-63
2021/11/26 05:06:01;;;;;;;11.63;8.98;;;9.30;99.50;;;;;;5072114;28;20799;-63
2021/11/26 05:08:27;;;;;;;14.48;11.65;;;9.30;99.50;;;;;;5073862;28;20220;-63
2021/11/26 05:10:55;;;;;;;16.67;9.75;;;9.30;99.50;;;;;;5073320;28;20733;-63
2021/11/26 05:13:27;;;;;;;17.48;10.93;;;9.30;99.50;;;;;;5073359;28;20708;-63
2021/11/26 05:15:53;;;;;;;15.15;11.32;;;9.30;99.60;;;;;;5073645;28;20216;-62
2021/11/26 05:18:23;;;;;;;13.30;11.18;;;9.40;99.60;;;;;;5074160;28;20244;-62
2021/11/26 05:20:51;;;;;;;20.02;14.45;;;9.40;99.80;;;;;;5073600;28;20224;-63
2021/11/26 05:23:18;;;;;;;14.00;10.75;;;9.40;99.90;;;;;;5074305;28;20228;-63
2021/11/26 05:25:45;;;;;;;14.18;9.80;;;9.40;99.50;;;;;;5074223;28;20223;-62
2021/11/26 05:28:12;;;;;;;16.88;9.40;;;9.40;99.50;;;;;;5054101;28;20483;-63
2021/11/26 05:30:40;;;;;;;14.48;10.98;;;9.40;99.30;;;;;;5054155;28;20607;-63
2021/11/26 05:33:08;;;;;;;23.55;11.95;;;9.40;99.40;;;;;;5053638;28;21360;-63
2021/11/26 05:35:36;;;;;;;17.42;9.77;;;9.40;99.30;;;;;;5053948;28;20311;-63
2021/11/26 05:38:03;;;;;;;16.73;10.63;;;9.40;99.20;;;;;;5053050;28;20233;-62
2021/11/26 05:40:30;;;;;;;18.67;10.20;;;9.30;99.30;;;;;;5054012;28;20232;-63
2021/11/26 05:42:57;;;;;;;16.60;10.05;;;9.30;99.30;;;;;;5053434;28;20274;-63
2021/11/26 05:45:24;;;;;;;16.25;10.30;;;9.30;99.50;;;;;;5054141;28;20298;-63
2021/11/26 05:47:52;;;;;;;24.05;11.25;;;9.30;99.50;;;;;;5053493;28;20220;-63
2021/11/26 05:50:21;;;;;;;21.17;9.05;;;9.30;99.70;;;;;;5053701;28;20255;-63
2021/11/26 05:52:48;;;;;;;16.85;9.85;;;9.20;99.80;;;;;;5053798;28;20282;-63
2021/11/26 05:55:17;;;;;;;16.77;10.57;;;9.20;99.90;;;;;;5053352;28;20225;-63
2021/11/26 05:57:45;;;;;;;23.02;12.15;;;9.20;99.90;;;;;;5053467;28;20286;-63
2021/11/26 06:00:14;;;;;;;15.40;8.93;;;9.10;99.90;;;;;;5053077;28;20231;-63
2021/11/26 06:02:41;;;;;;;11.18;8.95;;;9.10;99.90;;;;;;5053708;28;20232;-63
2021/11/26 06:05:10;;;;;;;15.05;11.43;;;9.10;99.90;;;;;;5052982;28;20311;-63
2021/11/26 06:07:37;;;;;;;25.73;11.77;;;9.10;99.90;;;;;;5053528;28;20221;-63
2021/11/26 06:10:05;;;;;;;16.77;11.25;;;9.10;99.90;;;;;;5052856;28;20309;-62
2021/11/26 06:12:32;;;;;;;14.88;10.70;;;9.10;99.90;;;;;;5053502;28;20302;-62
2021/11/26 06:14:59;;;;;;;17.73;12.15;;;9.10;99.90;;;;;;5052901;28;20239;-63
2021/11/26 06:17:26;;;;;;;19.17;11.55;;;9.10;99.90;;;;;;5053455;28;20229;-63
2021/11/26 06:19:53;;;;;;;16.33;12.20;;;9.00;99.90;;;;;;5052571;28;20231;-63
2021/11/26 06:22:21;;;;;;;16.88;11.52;;;9.00;99.90;;;;;;5072160;28;20235;-63
2021/11/26 06:24:48;;;;;;;19.52;11.85;;;9.00;99.90;;;;;;5073193;28;20228;-63
2021/11/26 06:27:15;;;;;;;17.20;11.70;;;9.00;99.90;;;;;;5072495;28;20224;-63
2021/11/26 06:29:42;;;;;;;15.77;11.20;;;9.00;99.90;;;;;;5073019;28;20224;-63
2021/11/26 06:32:09;;;;;;;16.55;10.40;;;9.00;99.90;;;;;;5072699;28;20215;-63
2021/11/26 06:34:36;;;;;;;16.88;9.77;;;8.90;99.90;;;;;;5072682;28;20228;-63
2021/11/26 06:37:04;;;;;;;17.75;11.30;;;8.90;99.90;;;;;;5072719;28;20235;-63
2021/11/26 06:39:32;;;;;;;16.30;11.50;;;9.00;99.90;;;;;;5072691;28;20239;-63
2021/11/26 06:42:01;;;;;;;14.90;9.13;;;9.00;99.90;;;;;;5072335;28;20220;-63
2021/11/26 06:44:27;;;;;;;18.23;10.48;;;9.00;99.90;;;;;;5072886;28;20303;-63
2021/11/26 06:46:54;;;;;;;29.77;17.27;;;9.00;99.90;;;;;;5072474;28;20232;-63
2021/11/26 06:49:22;;;;;;;29.25;14.93;;;9.00;99.90;;;;;;5072272;28;20235;-63
2021/11/26 06:51:48;;;;;;;19.83;12.88;;;9.00;99.90;;;;;;5072353;28;20705;-63
2021/11/26 06:54:15;;;;;;;16.45;10.52;;;9.00;99.90;;;;;;5072276;28;20216;-63
2021/11/26 06:56:44;;;;;;;14.20;9.68;;;9.00;99.90;;;;;;5072881;28;20223;-63
2021/11/26 06:59:11;;;;;;;15.85;8.70;;;9.00;99.90;;;;;;5072092;28;20235;-63
2021/11/26 07:01:38;;;;;;;13.60;9.02;;;9.00;99.70;;;;;;5072818;28;20227;-63
2021/11/26 07:04:07;;;;;;;14.32;10.18;;;9.00;99.90;;;;;;5072239;28;20223;-63
2021/11/26 07:06:34;;;;;;;15.00;9.68;;;9.00;99.70;;;;;;5072707;28;20219;-63
2021/11/26 07:09:01;;;;;;;15.20;9.25;;;9.00;99.30;;;;;;5072023;28;20216;-63
2021/11/26 07:11:28;;;;;;;10.23;9.15;;;9.10;99.40;;;;;;5072512;28;20696;-63
2021/11/26 07:13:56;;;;;;;14.93;10.07;;;9.20;99.50;;;;;;5072637;28;20242;-63
2021/11/26 07:16:23;;;;;;;10.68;8.75;;;9.20;99.40;;;;;;5072091;28;20216;-63
2021/11/26 07:18:50;;;;;;;11.40;7.85;;;9.20;99.40;;;;;;5072578;28;20292;-63
2021/11/26 07:21:17;;;;;;;11.98;8.70;;;9.30;99.10;;;;;;5071671;28;20224;-63
2021/11/26 07:23:44;;;;;;;10.73;8.50;;;9.30;99.10;;;;;;5072564;28;20228;-63
2021/11/26 07:26:12;;;;;;;18.88;11.52;;;9.30;98.90;;;;;;5072043;28;20675;-63
2021/11/26 07:28:39;;;;;;;14.00;8.90;;;9.30;98.90;;;;;;5072450;28;20220;-63
2021/11/26 07:31:08;;;;;;;15.95;9.10;;;9.30;98.90;;;;;;5071902;28;20702;-63
2021/11/26 07:33:35;;;;;;;14.52;9.63;;;9.30;98.60;;;;;;5072494;28;20690;-63
2021/11/26 07:36:02;;;;;;;19.75;13.32;;;9.40;98.60;;;;;;5071758;28;20273;-64
2021/11/26 07:38:29;;;;;;;13.48;9.95;;;9.30;98.30;;;;;;5072309;28;20223;-63
2021/11/26 07:40:56;;;;;;;14.93;11.18;;;9.30;98.40;;;;;;5072551;28;20451;-63
2021/11/26 07:43:23;;;;;;;14.30;9.00;;;9.20;98.50;;;;;;5071834;28;20231;-63
2021/11/26 07:45:50;;;;;;;12.20;8.77;;;9.30;98.60;;;;;;5072260;28;20224;-63
2021/11/26 07:48:19;;;;;;;13.65;8.88;;;9.20;98.60;;;;;;5071966;28;20301;-63
2021/11/26 07:50:46;;;;;;;12.35;9.43;;;9.30;98.60;;;;;;5072054;28;20235;-63
2021/11/26 07:53:14;;;;;;;14.40;8.85;;;9.30;98.50;;;;;;5071866;28;20547;-63
2021/11/26 07:55:41;;;;;;;16.02;9.27;;;9.30;98.50;;;;;;5072311;28;20798;-63
2021/11/26 07:58:08;;;;;;;17.75;8.68;;;9.30;98.40;;;;;;5071682;28;20609;-63
2021/11/26 08:00:37;;;;;;;11.93;9.15;;;9.30;98.40;;;;;;5072173;28;20244;-63
2021/11/26 08:03:04;;;;;;;13.13;9.32;;;9.30;98.40;;;;;;5075185;28;20219;-63
2021/11/26 08:05:33;;;;;;;13.10;7.93;;;9.40;98.50;;;;;;5075593;28;20231;-63
2021/11/26 08:08:01;;;;;;;9.73;7.30;;;9.40;98.30;;;;;;5075885;28;20230;-63
2021/11/26 08:10:29;;;;;;;14.23;7.97;;;9.40;98.30;;;;;;5075356;28;20220;-62
2021/11/26 08:12:55;;;;;;;12.88;7.55;;;9.30;98.00;;;;;;5075604;28;20223;-62
2021/11/26 08:15:22;;;;;;;12.25;7.30;;;9.20;98.20;;;;;;5075135;28;20224;-63
2021/11/26 08:17:49;;;;;;;14.57;8.20;;;9.30;98.40;;;;;;5075600;28;20273;-62
2021/11/26 08:20:17;;;;;;;12.00;8.45;;;9.20;98.40;;;;;;5074833;28;20305;-63
2021/11/26 08:22:47;;;;;;;20.70;8.75;;;9.10;98.30;;;;;;5075422;28;20220;-62
2021/11/26 08:25:16;;;;;;;11.73;7.55;;;9.10;98.50;;;;;;5075004;28;20235;-64
2021/11/26 08:27:43;;;;;;;10.65;7.38;;;9.10;98.70;;;;;;5075277;28;20215;-63
2021/11/26 08:30:10;;;;;;;13.25;8.30;;;9.20;98.70;;;;;;5074808;28;20224;-63
2021/11/26 08:32:38;;;;;;;12.02;8.02;;;9.10;98.60;;;;;;5075211;28;20244;-62
2021/11/26 08:35:06;;;;;;;14.25;8.15;;;9.10;98.70;;;;;;5074393;28;20212;-62
2021/11/26 08:37:34;;;;;;;9.95;6.47;;;9.20;98.70;;;;;;5075177;28;20224;-63
2021/11/26 08:40:03;;;;;;;12.88;9.18;;;9.20;98.70;;;;;;5075013;28;20235;-62
2021/11/26 08:42:30;;;;;;;12.07;7.20;;;9.20;98.60;;;;;;5074632;28;20257;-63
2021/11/26 08:44:57;;;;;;;17.27;11.02;;;9.30;98.60;;;;;;5075126;28;20219;-63
2021/11/26 08:47:24;;;;;;;12.20;9.20;;;9.30;98.50;;;;;;5074641;28;20224;-63
2021/11/26 08:49:51;;;;;;;10.70;7.97;;;9.30;98.40;;;;;;5074772;28;20255;-63
2021/11/26 08:52:19;;;;;;;11.32;7.53;;;9.40;98.30;;;;;;5074637;28;20228;-63
2021/11/26 08:54:46;;;;;;;10.73;7.70;;;9.50;98.30;;;;;;5075074;28;20307;-63
2021/11/26 08:57:17;;;;;;;15.90;8.13;;;9.50;98.30;;;;;;5074509;28;20224;-64
2021/11/26 08:59:44;;;;;;;10.55;8.10;;;9.60;98.40;;;;;;5074631;28;20681;-64
2021/11/26 09:02:13;;;;;;;9.48;7.28;;;9.70;98.30;;;;;;5074378;28;20228;-64
2021/11/26 09:04:40;;;;;;;10.00;8.07;;;9.70;98.20;;;;;;5074510;28;20227;-63
2021/11/26 09:07:07;;;;;;;13.95;8.80;;;9.80;98.10;;;;;;5074741;28;20216;-64
2021/11/26 09:09:34;;;;;;;11.02;7.05;;;9.80;97.80;;;;;;5074149;28;20254;-63
2021/11/26 09:12:03;;;;;;;13.75;8.02;;;9.90;97.70;;;;;;5074693;28;20570;-63
2021/11/26 09:14:34;;;;;;;12.25;8.43;;;10.00;96.80;;;;;;5073180;28;20238;-66
2021/11/26 09:17:01;;;;;;;16.20;8.80;;;10.00;96.80;;;;;;5074666;28;20232;-63
2021/11/26 09:19:28;;;;;;;16.17;10.10;;;10.00;96.70;;;;;;5073447;28;20224;-65
2021/11/26 09:21:55;;;;;;;18.23;10.55;;;10.00;96.80;;;;;;5074210;28;20265;-65
2021/11/26 09:24:22;;;;;;;16.73;10.35;;;10.10;96.50;;;;;;5073973;28;20258;-63
2021/11/26 09:26:49;;;;;;;12.70;8.50;;;10.10;96.60;;;;;;5074213;28;20281;-63
2021/11/26 09:29:16;;;;;;;13.90;9.68;;;10.10;96.60;;;;;;5073810;28;20293;-63
2021/11/26 09:31:44;;;;;;;15.57;8.05;;;10.00;96.70;;;;;;5074160;28;20539;-64
2021/11/26 09:34:11;;;;;;;14.38;9.60;;;10.00;96.60;;;;;;5073601;28;20308;-63
2021/11/26 09:36:38;;;;;;;10.52;7.80;;;9.90;97.20;;;;;;5074078;28;20231;-64
2021/11/26 09:39:07;;;;;;;9.95;7.35;;;9.90;97.10;;;;;;5073798;28;20228;-63
2021/11/26 09:41:34;;;;;;;15.55;9.68;;;9.90;96.90;;;;;;5073576;28;20228;-63
2021/11/26 09:44:02;;;;;;;10.95;7.75;;;9.80;96.90;;;;;;5073920;28;20361;-63
2021/11/26 09:46:32;;;;;;;12.60;7.20;;;9.90;97.20;;;;;;5073192;28;20227;-63
2021/11/26 09:49:01;;;;;;;15.00;9.27;;;9.90;97.20;;;;;;5073627;28;20216;-63
2021/11/26 09:51:28;;;;;;;20.13;9.57;;;9.90;97.30;;;;;;5073372;28;20232;-63
2021/11/26 09:53:56;;;;;;;9.50;7.00;;;10.00;96.70;;;;;;5073576;28;20628;-63
2021/11/26 09:56:23;;;;;;;16.63;9.95;;;10.10;96.60;;;;;;5073103;28;20220;-62
2021/11/26 09:58:50;;;;;;;15.60;9.27;;;10.10;96.10;;;;;;5073635;28;20251;-63
2021/11/26 10:01:17;;;;;;;15.23;8.40;;;10.10;96.20;;;;;;5073101;28;20220;-63
2021/11/26 10:03:46;;;;;;;18.85;9.98;;;10.00;95.90;;;;;;5073649;28;20224;-63
2021/11/26 10:06:26;;;;;;;12.00;8.43;;;10.00;96.00;;;;;;5073531;28;20227;-64
2021/11/26 10:09:02;;;;;;;16.05;9.20;;;10.00;96.00;;;;;;5073705;28;20569;-64
2021/11/26 10:11:31;;;;;;;17.10;9.15;;;10.00;95.80;;;;;;5073890;28;20299;-64
2021/11/26 10:13:58;;;;;;;20.00;8.82;;;10.00;95.70;;;;;;5072506;28;20289;-64
2021/11/26 10:16:25;;;;;;;16.17;9.48;;;9.90;95.90;;;;;;5072974;28;20224;-62
2021/11/26 10:18:55;;;;;;;12.38;8.90;;;9.90;95.90;;;;;;5072249;28;20236;-64
2021/11/26 10:21:26;;;;;;;12.70;9.18;;;9.90;96.00;;;;;;5068577;28;20244;-63
2021/11/26 10:23:53;;;;;;;16.25;10.23;;;10.00;95.40;;;;;;5071663;28;20579;-63
2021/11/26 10:26:23;;;;;;;11.98;9.98;;;10.00;95.30;;;;;;5071369;28;20677;-63
2021/11/26 10:28:53;;;;;;;17.70;10.68;;;10.00;95.30;;;;;;5070780;28;20327;-63
2021/11/26 10:31:27;;;;;;;13.73;10.50;;;10.10;95.30;;;;;;5071406;28;20231;-63
2021/11/26 10:33:56;;;;;;;13.48;10.13;;;10.10;95.30;;;;;;5070329;28;20682;-63
2021/11/26 10:36:26;;;;;;;20.02;11.52;;;10.20;95.00;;;;;;5071014;28;20228;-61
2021/11/26 10:38:53;;;;;;;14.23;10.50;;;10.20;94.90;;;;;;5070767;28;20220;-61
2021/11/26 10:41:26;;;;;;;17.55;11.00;;;10.20;95.00;;;;;;5071852;28;20578;-61
2021/11/26 10:43:59;;;;;;;15.73;10.18;;;10.20;94.60;;;;;;5072364;28;20224;-61
2021/11/26 10:46:46;;;;;;;15.18;8.50;;;10.20;94.60;;;;;;5072880;28;20224;-61
2021/11/26 10:49:40;;;;;;;16.58;9.07;;;10.30;94.60;;;;;;5073052;28;20223;-61
2021/11/26 10:52:19;;;;;;;16.52;10.35;;;10.30;94.60;;;;;;5072498;28;20273;-61
2021/11/26 11:00:18;;;;;;;18.30;11.43;;;10.30;95.00;;;;;;5064834;28;20235;-61
2021/11/26 11:02:47;;;;;;;18.25;13.38;;;10.30;95.30;;;;;;5072834;28;20226;-61
2021/11/26 11:05:25;;;;;;;19.13;13.98;;;10.30;95.40;;;;;;5071952;28;20682;-62
2021/11/26 11:07:54;;;;;;;17.95;13.13;;;10.20;95.30;;;;;;5072615;28;20620;-61
2021/11/26 11:10:28;;;;;;;23.48;12.73;;;10.20;95.20;;;;;;5072247;28;20220;-62
2021/11/26 11:12:55;;;;;;;16.85;12.70;;;10.20;95.40;;;;;;5072322;28;20215;-61
2021/11/26 11:15:23;;;;;;;17.77;13.82;;;10.20;95.60;;;;;;5072015;28;20713;-61
2021/11/26 11:17:51;;;;;;;21.67;15.32;;;10.20;95.70;;;;;;5072781;28;20298;-61
2021/11/26 11:20:21;;;;;;;18.77;13.35;;;10.10;95.70;;;;;;5071777;28;20224;-61
2021/11/26 11:22:51;;;;;;;14.45;12.82;;;10.10;95.90;;;;;;5072533;28;20636;-61
2021/11/26 11:25:26;;;;;;;18.40;11.98;;;10.10;95.80;;;;;;5072021;28;20833;-62
2021/11/26 11:27:53;;;;;;;20.73;12.50;;;10.10;95.80;;;;;;5072341;28;20693;-62
2021/11/26 11:30:21;;;;;;;19.42;13.20;;;10.10;95.60;;;;;;5071930;28;20228;-62
2021/11/26 11:32:48;;;;;;;19.35;13.18;;;10.10;95.70;;;;;;5072349;28;20247;-62
2021/11/26 11:35:15;;;;;;;15.20;13.25;;;10.10;95.60;;;;;;5071731;28;20228;-62
2021/11/26 11:37:43;;;;;;;14.98;10.25;;;10.10;95.50;;;;;;5075472;28;20224;-62
2021/11/26 11:40:12;;;;;;;16.95;12.93;;;10.20;95.50;;;;;;5075658;28;20227;-62
2021/11/26 11:42:43;;;;;;;21.58;12.77;;;10.10;95.20;;;;;;5076406;28;20227;-62
2021/11/26 11:45:12;;;;;;;17.77;13.15;;;10.20;95.40;;;;;;5075848;28;20565;-62
2021/11/26 11:47:45;;;;;;;17.25;13.55;;;10.20;95.30;;;;;;5075740;28;20273;-63
2021/11/26 11:50:15;;;;;;;22.30;17.63;;;10.20;95.30;;;;;;5075641;28;20243;-61
2021/11/26 11:52:44;;;;;;;20.88;16.23;;;10.20;95.50;;;;;;5076147;28;20231;-61
2021/11/26 11:55:22;;;;;;;17.48;13.57;;;10.20;95.50;;;;;;5075571;28;20220;-61
2021/11/26 11:57:52;;;;;;;15.50;13.13;;;10.30;95.70;;;;;;5073112;28;20739;-61
2021/11/26 12:00:21;;;;;;;18.48;13.18;;;10.30;95.60;;;;;;5055418;28;20303;-61
2021/11/26 12:02:50;;;;;;;19.60;12.80;;;10.30;95.50;;;;;;5055864;28;20311;-62
2021/11/26 12:05:25;;;;;;;21.38;11.63;;;10.30;95.50;;;;;;5055295;28;20622;-62
2021/11/26 12:08:04;;;;;;;17.50;13.02;;;10.30;95.30;;;;;;5055849;28;20254;-62
2021/11/26 12:10:43;;;;;;;15.02;11.88;;;10.30;95.10;;;;;;5055460;28;20236;-61
2021/11/26 12:13:21;;;;;;;10.85;9.48;;;10.30;95.00;;;;;;5063065;28;20216;-61
2021/11/26 12:15:51;;;;;;;16.92;11.90;;;10.30;95.10;;;;;;5056116;28;20220;-61
2021/11/26 12:18:18;;;;;;;19.85;12.52;;;10.30;95.40;;;;;;5055298;28;20955;-61
2021/11/26 12:20:48;;;;;;;18.85;13.35;;;10.40;95.00;;;;;;5061304;28;20269;-61
2021/11/26 12:23:20;;;;;;;15.77;13.02;;;10.40;94.80;;;;;;5075018;28;20228;-61
2021/11/26 12:26:05;;;;;;;22.35;16.20;;;10.40;94.40;;;;;;5075142;28;20232;-61
2021/11/26 12:28:44;;;;;;;23.73;17.08;;;10.30;94.20;;;;;;5075682;28;20239;-61
2021/11/26 12:31:12;;;;;;;17.13;12.77;;;10.30;94.10;;;;;;5075639;28;20235;-61
2021/11/26 12:33:40;;;;;;;19.15;12.35;;;10.30;94.00;;;;;;5074960;28;20282;-61
2021/11/26 12:36:09;;;;;;;15.10;11.40;;;10.30;94.10;;;;;;5075219;28;20228;-61
2021/11/26 12:38:43;;;;;;;15.75;11.77;;;10.30;93.90;;;;;;5074779;28;20231;-61
2021/11/26 12:41:11;;;;;;;18.35;12.95;;;10.20;94.00;;;;;;5075085;28;20235;-61
2021/11/26 12:43:45;;;;;;;16.55;12.60;;;10.20;94.50;;;;;;5074904;28;20326;-61
2021/11/26 12:46:21;;;;;;;18.70;12.38;;;10.20;94.30;;;;;;5074814;28;20224;-61
2021/11/26 12:51:52;;;;;;;26.50;18.38;;;10.20;94.50;;;;;;5072605;28;20761;-61